Historyczne dane pomiarowe

Dodano dane terminowe – wersja testowa.

Dane z okresu 1951-2019

Wersja bazy: 1.34 [2019-03-16, lista zmian], aktualizacja planowana na 2019-04-15

Dane meteo z obszaru Polski uzyskane na podstawie danych udostępnionych przez Instytut Meteorologii i Gospodarki Wodnej – Państwowy Instytut Badawczy.

 

Wybierz Datę:    

       

TemperaturaWilgotnośćZachmurzenieWiatrCiśnienieWidzialnośćZjawiska
 Data    tng td wb rh cc ccl cl cm ch dir g1 g2 mslp ppp      
1999-07-26 00:00:00 10.3--- 9.5 9.895wxwxwx3wx--- 805.1 0.0---wxw1
1999-07-26 01:00:00 10.1--- 8.6 9.391wxwxwx4wx--- 805.1----wx
1999-07-26 02:00:00 10.3--- 8.5 9.388wxwxwx3wx--- 804.8----wx
1999-07-26 03:00:00 10.9--- 9.3 10.090wxwxwx3wx--- 804.7----wx
1999-07-26 04:00:00 12.4--- 1.5 7.247wxwxwx3wx--- 804.6----wx
1999-07-26 05:00:00 12.5--- 7.4 9.771wxwxwx3wx--- 804.4----wx
1999-07-26 06:00:00 13.5--- 6.2 9.661wxwxwx2wx--- 804.4 0.0---wx
1999-07-26 07:00:00 13.9--- 7.1 10.264wxwxwxwx2wx--- 804.4----wx
1999-07-26 08:00:00 14.3--- 8.8 11.269wxwxwxwx2wx--- 804.6----wx
1999-07-26 09:00:00 14.5--- 8.8 11.369wxwxwxwx1wx--- 804.5----wx
1999-07-26 10:00:00 14.0--- 8.4 10.969wxwxwxwx2wx--- 804.7----wx
1999-07-26 11:00:00 13.8--- 11.3 12.385wxwxwx3wx--- 804.5----wx
1999-07-26 12:00:00 12.2--- 10.0 11.087wxwxwx5wx--- 804.4 0.0---wxw1
1999-07-26 13:00:00 11.6--- 10.9 11.195wxwxwx5wx--- 804.4----wxw1
1999-07-26 14:00:00 12.2--- 12.0 12.199wxwx4wx--- 804.3----wxw1
1999-07-26 15:00:00 11.5--- 11.3 11.499wxwx3wx--- 804.6----wxw1
1999-07-26 16:00:00 11.3--- 10.2 10.692wxwxwx2wx--- 804.5----wxw1
1999-07-26 17:00:00 10.8--- 10.6 10.799wxwx4wx--- 804.2----wxw1
1999-07-26 18:00:00 11.0--- 11.0 11.0100wxwx3wx--- 804.4 3.0---wxw1
1999-07-26 19:00:00 10.4--- 10.2 10.399wxwx5wx--- 804.7----wxw1
1999-07-26 20:00:00 11.0--- 11.0 11.0100wxwx5wx--- 804.7----wxw1
1999-07-26 21:00:00 11.1--- 11.1 11.1100wxwx6wx--- 804.2----wxw1
1999-07-26 22:00:00 11.0--- 10.8 10.999wxwx5wx--- 804.2----wxw1
1999-07-26 23:00:00 10.9--- 10.9 10.9100wxwx4wx--- 804.2----wxw1

 

Źródłem pochodzenia danych jest Instytut Meteorologii i Gospodarki Wodnej – Państwowy Instytut Badawczy. Dane Instytutu Meteorologii i Gospodarki Wodnej – Państwowego Instytutu Badawczego zostały przetworzone.

Dane źródłowe można odnaleźć na stronie https://dane.imgw.pl